KSEM/SEM METAR and TAF weather

Enter ICAO airport designator
Station Type Date Time Source
KSEM METAR 2022/01/23 11:15 UTC NOAA

KSEM 231115Z AUTO 00000KT 10SM CLR M06/M07 A3023 RMK AO2


Station Type Date Time Source
KSEM Decoded METAR 2022/01/23 11:15 UTC NOAA

Craig Field / Selma, AL, United States (KSEM) 32-21N 086-59W
Jan 23, 2022 - 06:15 AM EST / 2022.01.23 1115 UTC
Wind: Calm:0
Visibility: 10 mile(s):0
Sky conditions: clear
Temperature: 21 F (-6 C)
Dew Point: 19 F (-7 C)
Relative Humidity: 92%
Pressure (altimeter): 30.23 in. Hg (1023 hPa)
ob: KSEM 231115Z AUTO 00000KT 10SM CLR M06/M07 A3023 RMK AO2
cycle: 11

Station Type Date Time Source
KSEM TAF UTC NOAA

Error!

Example: see airport list